Time;durP1;ratioP1;P1;durP2;ratioP2;P2;SDS_P1;SDS_P2;PMS_P1;PMS_P2;Temp;Humidity;BMP_temperature;BMP_pressure;BME280_temperature;BME280_humidity;BME280_pressure;Samples;Min_cycle;Max_cycle;Signal;HPM_P1;HPM_P2
2021/10/09 00:00:45;;;;;;;41.07;22.80;;;6.10;98.60;;;;;;2074245;28;20185;-64
2021/10/09 00:01:45;;;;;;;40.17;21.67;;;6.10;98.70;;;;;;2073624;28;20189;-65
2021/10/09 00:02:46;;;;;;;47.03;23.00;;;6.10;98.50;;;;;;2074019;28;20192;-64
2021/10/09 00:03:47;;;;;;;49.77;24.03;;;6.10;98.60;;;;;;2074393;28;20182;-64
2021/10/09 00:04:47;;;;;;;47.37;24.23;;;6.10;98.60;;;;;;2074476;28;20263;-64
2021/10/09 00:05:48;;;;;;;43.77;21.83;;;6.10;98.70;;;;;;2074487;28;20213;-65
2021/10/09 00:06:50;;;;;;;46.13;22.63;;;6.10;98.90;;;;;;2074361;28;20633;-65
2021/10/09 00:07:51;;;;;;;44.65;22.67;;;6.10;99.00;;;;;;2074344;28;20178;-65
2021/10/09 00:08:52;;;;;;;44.00;23.33;;;6.10;99.00;;;;;;2074725;28;20178;-65
2021/10/09 00:09:57;;;;;;;42.10;20.63;;;6.10;98.90;;;;;;2074412;28;20235;-64
2021/10/09 00:10:59;;;;;;;41.60;21.60;;;6.10;98.80;;;;;;2073744;28;20182;-65
2021/10/09 00:12:00;;;;;;;48.45;21.17;;;6.10;98.90;;;;;;2073673;28;20239;-64
2021/10/09 00:13:00;;;;;;;39.87;22.40;;;6.10;98.70;;;;;;2074371;28;20170;-65
2021/10/09 00:14:03;;;;;;;41.60;21.87;;;6.00;98.70;;;;;;2073626;28;20223;-65
2021/10/09 00:15:05;;;;;;;44.42;23.20;;;6.10;98.70;;;;;;2065988;28;20186;-64
2021/10/09 00:16:06;;;;;;;40.65;22.38;;;6.10;98.60;;;;;;2073851;28;20685;-64
2021/10/09 00:17:09;;;;;;;44.00;22.20;;;6.10;98.60;;;;;;2074438;28;20209;-65
2021/10/09 00:18:10;;;;;;;40.00;22.42;;;6.00;98.70;;;;;;2074435;28;20649;-64
2021/10/09 00:19:12;;;;;;;48.57;23.47;;;6.00;99.40;;;;;;2073789;28;20185;-64
2021/10/09 00:20:13;;;;;;;46.75;22.35;;;6.00;99.80;;;;;;2073729;28;20905;-66
2021/10/09 00:21:13;;;;;;;46.90;23.33;;;6.00;99.20;;;;;;2074033;28;20266;-64
2021/10/09 00:22:14;;;;;;;41.97;21.90;;;5.90;99.00;;;;;;2074456;28;20252;-64
2021/10/09 00:23:15;;;;;;;40.90;21.30;;;6.00;98.90;;;;;;2073826;28;20189;-65
2021/10/09 00:24:18;;;;;;;43.33;22.30;;;6.00;98.80;;;;;;2073415;28;20181;-64
2021/10/09 00:25:20;;;;;;;40.15;20.63;;;6.00;98.90;;;;;;2074427;28;20212;-65
2021/10/09 00:26:21;;;;;;;39.08;19.90;;;5.90;98.90;;;;;;2074395;28;20236;-65
2021/10/09 00:27:22;;;;;;;34.80;19.77;;;5.90;98.90;;;;;;2074267;28;20610;-64
2021/10/09 00:28:23;;;;;;;37.73;21.07;;;5.90;99.00;;;;;;2074165;28;20680;-65
2021/10/09 00:29:24;;;;;;;42.13;23.48;;;5.80;99.00;;;;;;2073718;28;20188;-65
2021/10/09 00:30:25;;;;;;;46.50;24.27;;;5.90;99.60;;;;;;2065545;28;20175;-64
2021/10/09 00:31:26;;;;;;;48.05;24.05;;;5.80;99.90;;;;;;2073363;28;20201;-64
2021/10/09 00:32:26;;;;;;;42.83;22.20;;;5.80;99.90;;;;;;2074097;28;20661;-64
2021/10/09 00:33:27;;;;;;;46.53;23.60;;;5.80;99.90;;;;;;2074213;28;20178;-65
2021/10/09 00:34:28;;;;;;;39.87;22.10;;;5.80;99.90;;;;;;2074172;28;20178;-65
2021/10/09 00:35:28;;;;;;;40.30;22.47;;;5.80;99.90;;;;;;2074296;28;20178;-65
2021/10/09 00:36:30;;;;;;;42.60;21.13;;;5.80;99.90;;;;;;2074152;28;20201;-65
2021/10/09 00:37:30;;;;;;;40.55;21.52;;;5.80;99.90;;;;;;2074267;28;20178;-65
2021/10/09 00:38:31;;;;;;;40.50;20.90;;;5.80;99.80;;;;;;2074290;28;20703;-64
2021/10/09 00:39:32;;;;;;;43.30;21.30;;;5.80;99.70;;;;;;2074255;28;20275;-64
2021/10/09 00:40:32;;;;;;;38.27;21.87;;;5.80;99.60;;;;;;2074399;28;20260;-64
2021/10/09 00:41:33;;;;;;;36.80;20.77;;;5.70;99.50;;;;;;2073888;28;20239;-67
2021/10/09 00:42:34;;;;;;;40.20;20.50;;;5.70;99.40;;;;;;2074184;28;20730;-65
2021/10/09 00:43:35;;;;;;;35.93;19.60;;;5.80;99.20;;;;;;2073340;28;20212;-64
2021/10/09 00:44:36;;;;;;;39.83;21.50;;;5.70;99.20;;;;;;2073563;28;20220;-65
2021/10/09 00:45:38;;;;;;;47.97;22.70;;;5.70;99.20;;;;;;2074240;28;20257;-64
2021/10/09 00:46:40;;;;;;;43.60;22.27;;;5.70;99.20;;;;;;2074161;28;20190;-64
2021/10/09 00:47:41;;;;;;;41.67;22.00;;;5.70;99.30;;;;;;2074391;28;20220;-64
2021/10/09 00:48:42;;;;;;;40.70;20.93;;;5.70;99.20;;;;;;2074127;28;20189;-65
2021/10/09 00:49:43;;;;;;;40.10;20.60;;;5.70;99.60;;;;;;2074228;28;20261;-64
2021/10/09 00:50:44;;;;;;;45.03;22.15;;;5.60;99.10;;;;;;2073975;28;20205;-64
2021/10/09 00:51:47;;;;;;;44.27;22.20;;;5.60;99.10;;;;;;2073663;28;20185;-64
2021/10/09 00:52:51;;;;;;;46.55;22.50;;;5.70;98.90;;;;;;2074171;28;20188;-64
2021/10/09 00:53:52;;;;;;;44.05;22.30;;;5.70;99.10;;;;;;2074118;28;20182;-65
2021/10/09 00:54:55;;;;;;;44.93;21.80;;;5.70;99.20;;;;;;2074115;28;20215;-65
2021/10/09 00:55:56;;;;;;;46.90;22.48;;;5.70;99.50;;;;;;2074010;28;20178;-65
2021/10/09 00:56:58;;;;;;;42.75;20.70;;;5.70;99.50;;;;;;2073398;28;20276;-64
2021/10/09 00:58:01;;;;;;;42.72;22.63;;;5.70;99.70;;;;;;2073424;28;20209;-64
2021/10/09 00:59:03;;;;;;;42.25;22.17;;;5.70;99.90;;;;;;2074057;28;20173;-65
2021/10/09 01:00:06;;;;;;;51.78;24.70;;;5.70;99.90;;;;;;2074132;28;20180;-65
2021/10/09 01:01:07;;;;;;;48.58;24.00;;;5.60;99.90;;;;;;2073789;28;20265;-64
2021/10/09 01:02:08;;;;;;;52.33;25.10;;;5.60;99.90;;;;;;2073767;28;20182;-64
2021/10/09 01:03:09;;;;;;;48.88;22.85;;;5.70;99.90;;;;;;2074137;28;20169;-64
2021/10/09 01:04:10;;;;;;;37.97;21.73;;;5.70;99.90;;;;;;2074004;28;20180;-65
2021/10/09 01:05:11;;;;;;;46.17;23.40;;;5.70;99.80;;;;;;2073616;28;20662;-65
2021/10/09 01:06:12;;;;;;;47.87;24.27;;;5.70;99.80;;;;;;2073355;28;20178;-65
2021/10/09 01:07:13;;;;;;;46.43;23.50;;;5.70;99.60;;;;;;2073308;28;20226;-65
2021/10/09 01:08:14;;;;;;;39.20;20.57;;;5.70;99.50;;;;;;2073218;28;20177;-65
2021/10/09 01:09:15;;;;;;;43.38;22.95;;;5.70;99.50;;;;;;2074112;28;20649;-65
2021/10/09 01:10:16;;;;;;;41.23;22.03;;;5.70;99.30;;;;;;2073937;28;20216;-66
2021/10/09 01:11:17;;;;;;;46.17;22.63;;;5.80;99.40;;;;;;2073799;28;20557;-65
2021/10/09 01:12:17;;;;;;;47.60;23.60;;;5.70;99.40;;;;;;2073166;28;20548;-65
2021/10/09 01:13:18;;;;;;;46.37;24.30;;;5.70;99.30;;;;;;2073864;28;20421;-65
2021/10/09 01:14:19;;;;;;;40.70;22.47;;;5.80;99.50;;;;;;2073705;28;20568;-64
2021/10/09 01:15:23;;;;;;;44.27;22.00;;;5.80;99.70;;;;;;2073881;28;20173;-65
2021/10/09 01:16:27;;;;;;;43.70;23.67;;;5.70;99.80;;;;;;2073263;28;20231;-64
2021/10/09 01:17:28;;;;;;;48.50;22.42;;;5.80;99.80;;;;;;2065728;28;20675;-64
2021/10/09 01:18:28;;;;;;;44.13;23.00;;;5.80;99.80;;;;;;2065125;28;20193;-64
2021/10/09 01:19:29;;;;;;;46.37;22.47;;;5.80;99.60;;;;;;2073163;28;20196;-65
2021/10/09 01:20:45;;;;;;;48.70;23.30;;;5.80;99.40;;;;;;2073022;28;20220;-66
2021/10/09 01:21:49;;;;;;;48.00;24.88;;;5.80;99.30;;;;;;2073154;28;20649;-65
2021/10/09 01:22:49;;;;;;;46.45;23.55;;;5.80;99.50;;;;;;2073788;28;20201;-64
2021/10/09 01:23:53;;;;;;;47.77;25.10;;;5.90;99.00;;;;;;2073820;28;20543;-66
2021/10/09 01:24:53;;;;;;;43.60;24.13;;;5.80;99.00;;;;;;2073193;28;20217;-64
2021/10/09 01:25:55;;;;;;;45.97;23.13;;;5.90;99.20;;;;;;2073518;28;20628;-65
2021/10/09 01:26:55;;;;;;;45.17;23.70;;;5.80;99.30;;;;;;2073606;28;20597;-65
2021/10/09 01:27:56;;;;;;;39.83;22.80;;;5.80;99.30;;;;;;2073983;28;20174;-64
2021/10/09 01:28:57;;;;;;;38.93;21.07;;;5.80;99.30;;;;;;2073838;28;20177;-66
2021/10/09 01:29:58;;;;;;;41.27;22.50;;;5.70;99.30;;;;;;2073025;28;20257;-65
2021/10/09 01:30:58;;;;;;;39.80;19.73;;;5.70;99.30;;;;;;2073036;28;20625;-67
2021/10/09 01:32:00;;;;;;;35.90;21.50;;;5.70;99.20;;;;;;2080899;28;20208;-65
2021/10/09 01:33:02;;;;;;;39.67;22.13;;;5.70;99.10;;;;;;2081867;28;20547;-66
2021/10/09 01:34:03;;;;;;;38.17;21.02;;;5.70;98.90;;;;;;2081415;28;20270;-65
2021/10/09 01:35:08;;;;;;;40.97;20.70;;;5.70;98.90;;;;;;2081202;28;20205;-64
2021/10/09 01:36:10;;;;;;;44.83;23.40;;;5.60;98.90;;;;;;2081918;28;20262;-66
2021/10/09 01:37:10;;;;;;;41.78;21.77;;;5.60;98.70;;;;;;2081454;28;20219;-66
2021/10/09 01:38:11;;;;;;;43.87;23.53;;;5.60;98.90;;;;;;2081259;28;20181;-65
2021/10/09 01:39:15;;;;;;;47.47;24.23;;;5.60;99.00;;;;;;2078668;28;20184;-65
2021/10/09 01:40:15;;;;;;;48.22;23.70;;;5.60;99.00;;;;;;2073685;28;20276;-64
2021/10/09 01:41:17;;;;;;;42.53;21.73;;;5.70;99.30;;;;;;2073491;28;20653;-65
2021/10/09 01:42:18;;;;;;;42.20;22.20;;;5.70;99.30;;;;;;2073645;28;20213;-64
2021/10/09 01:43:21;;;;;;;44.40;22.50;;;5.70;99.20;;;;;;2073633;28;20189;-65
2021/10/09 01:44:22;;;;;;;41.42;20.95;;;5.60;99.10;;;;;;2073707;28;20181;-65
2021/10/09 01:45:22;;;;;;;37.80;20.20;;;5.60;99.20;;;;;;2073452;28;20221;-65
2021/10/09 01:46:23;;;;;;;39.60;20.50;;;5.60;99.00;;;;;;2073696;28;20178;-65
2021/10/09 01:47:24;;;;;;;41.90;20.40;;;5.60;99.00;;;;;;2073717;28;20677;-65
2021/10/09 01:48:51;;;;;;;41.47;21.23;;;5.50;99.10;;;;;;2073775;28;20314;-64
2021/10/09 01:49:51;;;;;;;36.78;19.60;;;5.50;99.10;;;;;;2073396;28;20193;-64
2021/10/09 01:50:52;;;;;;;37.67;20.83;;;5.50;99.10;;;;;;2073500;28;20197;-64
2021/10/09 01:51:53;;;;;;;36.80;19.23;;;5.50;99.10;;;;;;2073491;28;20192;-65
2021/10/09 01:52:53;;;;;;;40.00;20.73;;;5.50;99.20;;;;;;2073636;28;20174;-64
2021/10/09 01:53:54;;;;;;;43.47;21.30;;;5.40;99.90;;;;;;2073389;28;20248;-63
2021/10/09 01:54:55;;;;;;;36.90;20.70;;;5.40;99.40;;;;;;2073670;28;20196;-63
2021/10/09 01:55:56;;;;;;;37.17;21.07;;;5.40;99.40;;;;;;2073587;28;20712;-63
2021/10/09 01:56:57;;;;;;;36.80;20.52;;;5.40;99.30;;;;;;2073051;28;20260;-63
2021/10/09 01:57:58;;;;;;;41.53;22.13;;;5.40;99.10;;;;;;2072901;28;20193;-64
2021/10/09 01:58:59;;;;;;;46.47;23.05;;;5.40;99.60;;;;;;2073129;28;20221;-64
2021/10/09 01:59:59;;;;;;;41.63;22.70;;;5.40;99.60;;;;;;2073042;28;20181;-64
2021/10/09 02:01:00;;;;;;;39.43;22.30;;;5.40;99.60;;;;;;2073612;28;20181;-64
2021/10/09 02:02:01;;;;;;;40.90;22.93;;;5.40;99.80;;;;;;2073500;28;20166;-64
2021/10/09 02:03:06;;;;;;;41.30;21.57;;;5.40;99.80;;;;;;2073680;28;20521;-65
2021/10/09 02:04:07;;;;;;;39.58;20.85;;;5.40;99.80;;;;;;2073683;28;20204;-64
2021/10/09 02:05:08;;;;;;;47.40;22.43;;;5.40;99.70;;;;;;2073587;28;20205;-64
2021/10/09 02:06:09;;;;;;;37.70;21.43;;;5.40;99.60;;;;;;2073848;28;20452;-64
2021/10/09 02:07:16;;;;;;;39.63;21.33;;;5.40;99.50;;;;;;2072788;28;20201;-64
2021/10/09 02:08:16;;;;;;;36.88;20.38;;;5.40;99.40;;;;;;2073018;28;20176;-64
2021/10/09 02:09:18;;;;;;;38.23;19.70;;;5.30;99.40;;;;;;2073517;28;20186;-66
2021/10/09 02:10:19;;;;;;;43.58;21.45;;;5.30;99.30;;;;;;2073435;28;20189;-64
2021/10/09 02:11:22;;;;;;;39.20;19.90;;;5.30;99.30;;;;;;2073501;28;20548;-64
2021/10/09 02:12:25;;;;;;;39.53;19.75;;;5.30;99.30;;;;;;2072781;28;20186;-64
2021/10/09 02:14:17;;;;;;;42.30;21.00;;;5.20;99.40;;;;;;2072881;28;20193;-65
2021/10/09 02:15:15;;;;;;;35.25;18.80;;;5.20;99.40;;;;;;2067397;28;20209;-64
2021/10/09 02:17:34;;;;;;;44.70;20.17;;;5.20;99.40;;;;;;2073389;28;20185;-66
2021/10/09 02:25:38;;;;;;;41.17;18.52;;;5.00;99.10;;;;;;2064434;28;20205;-65
2021/10/09 02:26:38;;;;;;;34.92;19.40;;;5.10;99.10;;;;;;2079559;28;20204;-65
2021/10/09 02:27:39;;;;;;;39.70;20.90;;;5.10;99.30;;;;;;2081453;28;20240;-64
2021/10/09 02:28:40;;;;;;;41.75;20.77;;;5.00;99.20;;;;;;2081614;28;20180;-64
2021/10/09 02:29:41;;;;;;;40.00;19.53;;;5.10;99.30;;;;;;2081653;28;20215;-64
2021/10/09 02:30:42;;;;;;;38.40;19.57;;;5.00;99.30;;;;;;2081799;28;20676;-64
2021/10/09 02:31:43;;;;;;;44.30;20.65;;;5.00;99.30;;;;;;2081396;28;20275;-64
2021/10/09 02:32:44;;;;;;;41.97;20.97;;;5.00;99.30;;;;;;2081070;28;20192;-64
2021/10/09 02:33:45;;;;;;;40.13;20.83;;;5.00;99.30;;;;;;2080974;28;20180;-63
2021/10/09 02:34:45;;;;;;;36.37;19.53;;;5.00;99.20;;;;;;2081518;28;20235;-63
2021/10/09 02:35:47;;;;;;;37.53;19.40;;;5.00;99.20;;;;;;2081663;28;20211;-65
2021/10/09 02:36:48;;;;;;;32.45;18.27;;;5.00;99.10;;;;;;2081569;28;20268;-65
2021/10/09 02:37:48;;;;;;;39.70;20.40;;;4.90;99.10;;;;;;2081499;28;20190;-64
2021/10/09 02:38:49;;;;;;;36.77;19.17;;;4.90;99.10;;;;;;2080892;28;20198;-64
2021/10/09 02:39:50;;;;;;;28.47;17.10;;;4.90;99.00;;;;;;2081200;28;20560;-63
2021/10/09 02:40:50;;;;;;;35.27;20.20;;;4.90;98.90;;;;;;2081648;28;20173;-64
2021/10/09 02:41:52;;;;;;;30.93;18.07;;;4.90;98.90;;;;;;2081512;28;20222;-63
2021/10/09 02:42:52;;;;;;;35.35;18.85;;;4.90;99.00;;;;;;2080896;28;20563;-65
2021/10/09 02:43:53;;;;;;;30.87;17.93;;;4.80;99.10;;;;;;2080984;28;20318;-64
2021/10/09 02:44:54;;;;;;;37.93;19.73;;;4.80;99.10;;;;;;2081493;28;20840;-66
2021/10/09 02:45:55;;;;;;;37.40;17.73;;;4.80;99.10;;;;;;2081715;28;20585;-64
2021/10/09 02:46:55;;;;;;;38.40;18.37;;;4.80;99.20;;;;;;2081661;28;20208;-64
2021/10/09 02:48:02;;;;;;;38.53;18.87;;;4.80;99.20;;;;;;2081605;28;20199;-66
2021/10/09 02:49:03;;;;;;;34.33;18.27;;;4.80;99.10;;;;;;2081783;28;20180;-64
2021/10/09 02:50:07;;;;;;;34.80;18.92;;;4.80;99.10;;;;;;2081644;28;20208;-63
2021/10/09 02:51:07;;;;;;;42.20;19.63;;;4.80;99.00;;;;;;2081412;28;20187;-64
2021/10/09 02:52:08;;;;;;;33.97;18.83;;;4.80;99.00;;;;;;2081501;28;20183;-65
2021/10/09 02:53:10;;;;;;;36.37;18.37;;;4.70;99.00;;;;;;2081545;28;20172;-64
2021/10/09 02:54:10;;;;;;;37.67;19.35;;;4.70;99.10;;;;;;2081465;28;20181;-66
2021/10/09 02:55:13;;;;;;;38.97;20.33;;;4.70;99.10;;;;;;2081461;28;20648;-65
2021/10/09 02:56:14;;;;;;;29.58;18.10;;;4.70;99.30;;;;;;2081406;28;20651;-63
2021/10/09 02:57:15;;;;;;;39.53;18.13;;;4.70;99.10;;;;;;2081527;28;20274;-67
2021/10/09 02:58:16;;;;;;;32.47;18.73;;;4.70;99.00;;;;;;2081465;28;20176;-64
2021/10/09 02:59:16;;;;;;;34.13;18.50;;;4.70;99.10;;;;;;2081519;28;20188;-65
2021/10/09 03:00:20;;;;;;;39.10;19.83;;;4.70;99.10;;;;;;2081712;28;20277;-64
2021/10/09 03:01:20;;;;;;;37.45;19.73;;;4.70;99.20;;;;;;2080631;28;20181;-66
2021/10/09 03:02:21;;;;;;;36.87;18.37;;;4.70;99.20;;;;;;2080763;28;20241;-64
2021/10/09 03:03:22;;;;;;;40.73;20.30;;;4.60;99.20;;;;;;2089144;28;20734;-64
2021/10/09 03:04:22;;;;;;;38.47;19.27;;;4.70;99.20;;;;;;2080933;28;20180;-66
2021/10/09 03:05:24;;;;;;;36.47;19.23;;;4.70;99.20;;;;;;2081022;28;20191;-64
2021/10/09 03:06:24;;;;;;;38.50;17.52;;;4.70;99.30;;;;;;2081603;28;20265;-64
2021/10/09 03:07:25;;;;;;;32.97;17.90;;;4.70;99.30;;;;;;2081546;28;20223;-64
2021/10/09 03:08:26;;;;;;;36.20;18.27;;;4.60;99.30;;;;;;2081462;28;20275;-64
2021/10/09 03:09:26;;;;;;;34.53;18.13;;;4.70;99.70;;;;;;2081613;28;20183;-64
2021/10/09 03:10:27;;;;;;;37.73;18.03;;;4.60;99.10;;;;;;2081499;28;20215;-65
2021/10/09 03:11:28;;;;;;;30.07;16.43;;;4.60;99.20;;;;;;2081165;28;20187;-64
2021/10/09 03:12:28;;;;;;;35.97;17.80;;;4.60;99.30;;;;;;2081410;28;20185;-64
2021/10/09 03:13:29;;;;;;;32.47;17.37;;;4.60;99.30;;;;;;2081348;28;20227;-65
2021/10/09 03:14:30;;;;;;;33.00;17.83;;;4.60;99.40;;;;;;2081288;28;20211;-64
2021/10/09 03:15:31;;;;;;;27.03;15.90;;;4.60;99.40;;;;;;2081470;28;20344;-64
2021/10/09 03:16:31;;;;;;;34.80;17.80;;;4.60;99.40;;;;;;2081352;28;20260;-63
2021/10/09 03:17:32;;;;;;;38.07;18.37;;;4.60;99.50;;;;;;2081450;28;20180;-65
2021/10/09 03:18:33;;;;;;;33.60;16.93;;;4.50;99.50;;;;;;2081264;28;20246;-64
2021/10/09 03:19:34;;;;;;;33.70;18.87;;;4.60;99.40;;;;;;2081405;28;20274;-64
2021/10/09 03:20:36;;;;;;;30.53;17.47;;;4.50;99.40;;;;;;2081304;28;20568;-65
2021/10/09 03:21:36;;;;;;;35.92;17.80;;;4.50;99.90;;;;;;2081058;28;20184;-64
2021/10/09 03:22:37;;;;;;;34.40;17.33;;;4.50;99.20;;;;;;2081356;28;20659;-64
2021/10/09 03:23:38;;;;;;;36.55;18.30;;;4.50;99.20;;;;;;2081487;28;20521;-64
2021/10/09 03:24:39;;;;;;;30.60;16.43;;;4.50;99.20;;;;;;2081332;28;20287;-65
2021/10/09 03:25:40;;;;;;;29.75;17.02;;;4.60;99.30;;;;;;2081685;28;20195;-66
2021/10/09 03:26:41;;;;;;;36.93;19.00;;;4.50;99.30;;;;;;2081437;28;20193;-66
2021/10/09 03:27:42;;;;;;;34.47;18.03;;;4.50;99.30;;;;;;2081290;28;20208;-66
2021/10/09 03:28:42;;;;;;;39.20;18.80;;;4.50;99.40;;;;;;2081424;28;20670;-63
2021/10/09 03:29:43;;;;;;;39.10;19.57;;;4.50;99.50;;;;;;2081397;28;20186;-65
2021/10/09 03:30:44;;;;;;;33.27;19.20;;;4.50;99.60;;;;;;2081498;28;20212;-64
2021/10/09 03:31:44;;;;;;;36.20;19.47;;;4.50;99.70;;;;;;2081015;28;20682;-64
2021/10/09 03:32:45;;;;;;;37.30;19.77;;;4.50;99.80;;;;;;2081360;28;20259;-64
2021/10/09 03:33:46;;;;;;;34.80;19.80;;;4.50;99.90;;;;;;2076881;28;20732;-64
2021/10/09 03:34:47;;;;;;;43.03;20.73;;;4.60;99.90;;;;;;2073243;28;20208;-65
2021/10/09 03:35:47;;;;;;;34.23;19.80;;;4.60;99.90;;;;;;2074422;28;20177;-64
2021/10/09 03:36:48;;;;;;;44.53;21.17;;;4.60;99.90;;;;;;2074668;28;20662;-64
2021/10/09 03:37:49;;;;;;;39.27;19.70;;;4.70;99.90;;;;;;2074650;28;20200;-63
2021/10/09 03:38:50;;;;;;;40.88;19.98;;;4.70;99.90;;;;;;2074659;28;20178;-63
2021/10/09 03:39:52;;;;;;;33.63;18.87;;;4.80;99.90;;;;;;2078512;28;20271;-63
2021/10/09 03:40:59;;;;;;;36.38;18.40;;;4.80;99.90;;;;;;2074883;28;20664;-64
2021/10/09 03:42:08;;;;;;;30.77;17.90;;;4.80;99.90;;;;;;2074576;28;20184;-63
2021/10/09 03:43:12;;;;;;;79.70;40.40;;;4.90;99.90;;;;;;2074761;28;20541;-63
2021/10/09 03:44:13;;;;;;;74.65;39.10;;;4.90;99.90;;;;;;2074414;28;20253;-65
2021/10/09 03:45:21;;;;;;;56.73;31.07;;;5.00;99.90;;;;;;2074559;28;20181;-64
2021/10/09 03:46:29;;;;;;;44.10;22.55;;;5.00;99.90;;;;;;2074559;28;20272;-64
2021/10/09 03:47:49;;;;;;;46.10;22.55;;;5.00;99.90;;;;;;2074366;28;20208;-64
2021/10/09 03:49:41;;;;;;;41.85;22.38;;;5.00;99.90;;;;;;2074564;28;20173;-64
2021/10/09 03:52:49;;;;;;;66.07;35.97;;;5.20;99.90;;;;;;2073880;28;20572;-64
2021/10/09 03:53:50;;;;;;;50.80;24.60;;;5.30;99.90;;;;;;2068302;28;20202;-65
2021/10/09 03:54:50;;;;;;;41.60;23.73;;;5.40;99.90;;;;;;2073761;28;20284;-64
2021/10/09 03:55:51;;;;;;;40.73;23.63;;;5.40;99.80;;;;;;2074700;28;20645;-64
2021/10/09 03:56:52;;;;;;;44.67;21.77;;;5.40;99.80;;;;;;2074561;28;20192;-64
2021/10/09 03:57:52;;;;;;;36.83;20.73;;;5.50;99.80;;;;;;2074316;28;20555;-64
2021/10/09 03:58:53;;;;;;;44.17;25.30;;;5.40;99.80;;;;;;2074311;28;20181;-64
2021/10/09 03:59:54;;;;;;;46.73;26.03;;;5.50;99.80;;;;;;2074313;28;20185;-65
2021/10/09 04:00:54;;;;;;;45.40;23.63;;;5.50;99.80;;;;;;2074302;28;20190;-64
2021/10/09 04:01:55;;;;;;;46.20;23.73;;;5.60;99.80;;;;;;2074217;28;20544;-64
2021/10/09 04:02:56;;;;;;;39.87;21.03;;;5.60;99.90;;;;;;2074364;28;20201;-64
2021/10/09 04:03:57;;;;;;;43.73;21.57;;;5.60;99.90;;;;;;2074378;28;20180;-64
2021/10/09 04:04:57;;;;;;;44.80;22.70;;;5.50;99.90;;;;;;2074201;28;20252;-64
2021/10/09 04:05:58;;;;;;;43.03;22.63;;;5.60;99.90;;;;;;2074266;28;20181;-65
2021/10/09 04:06:59;;;;;;;47.87;22.83;;;5.60;99.90;;;;;;2074252;28;20180;-63
2021/10/09 04:07:59;;;;;;;51.27;24.70;;;5.70;99.90;;;;;;2074646;28;20193;-64
2021/10/09 04:09:00;;;;;;;36.30;21.70;;;5.80;99.90;;;;;;2074272;28;20174;-64
2021/10/09 04:10:02;;;;;;;46.23;23.07;;;5.70;99.90;;;;;;2074340;28;20177;-64
2021/10/09 04:11:03;;;;;;;38.80;21.63;;;5.70;99.90;;;;;;2073445;28;20626;-67
2021/10/09 04:12:04;;;;;;;40.20;22.13;;;5.60;99.90;;;;;;2073787;28;20177;-66
2021/10/09 04:13:05;;;;;;;37.92;21.33;;;5.60;99.90;;;;;;2074249;28;20646;-63
2021/10/09 04:14:06;;;;;;;40.37;22.30;;;5.60;99.90;;;;;;2074369;28;20189;-66
2021/10/09 04:15:08;;;;;;;42.33;21.77;;;5.70;99.90;;;;;;2074287;28;20377;-64
2021/10/09 04:16:08;;;;;;;38.83;20.35;;;5.70;99.90;;;;;;2074210;28;20182;-64
2021/10/09 04:17:09;;;;;;;47.43;23.87;;;5.70;99.90;;;;;;2074206;28;20190;-64
2021/10/09 04:18:10;;;;;;;39.13;21.77;;;5.70;99.90;;;;;;2074416;28;20177;-64
2021/10/09 04:19:10;;;;;;;36.83;21.20;;;5.70;99.90;;;;;;2074277;28;20613;-64
2021/10/09 04:20:11;;;;;;;36.67;20.73;;;5.70;99.90;;;;;;2074225;28;20218;-64
2021/10/09 04:21:12;;;;;;;43.40;21.67;;;5.80;99.90;;;;;;2073694;28;20174;-63
2021/10/09 04:22:12;;;;;;;44.53;22.97;;;5.80;99.90;;;;;;2074182;28;20174;-64
2021/10/09 04:23:14;;;;;;;47.13;22.17;;;5.90;99.90;;;;;;2074041;28;20704;-64
2021/10/09 04:24:18;;;;;;;40.03;22.50;;;5.90;99.90;;;;;;2073987;28;20181;-64
2021/10/09 04:25:18;;;;;;;38.25;20.45;;;6.00;99.90;;;;;;2073963;28;20271;-66
2021/10/09 04:26:19;;;;;;;40.43;22.47;;;6.00;99.90;;;;;;2074136;28;20186;-64
2021/10/09 04:27:20;;;;;;;40.17;22.10;;;6.00;99.90;;;;;;2074235;28;20270;-64
2021/10/09 04:28:20;;;;;;;40.97;22.13;;;6.00;99.90;;;;;;2074055;28;20261;-65
2021/10/09 04:29:21;;;;;;;42.37;21.73;;;6.10;99.90;;;;;;2074093;28;20190;-63
2021/10/09 04:30:22;;;;;;;49.60;24.60;;;6.10;99.90;;;;;;2074103;28;20581;-64
2021/10/09 04:31:23;;;;;;;41.23;22.60;;;6.20;99.90;;;;;;2073677;28;20260;-65
2021/10/09 04:32:23;;;;;;;39.40;23.23;;;6.20;99.90;;;;;;2073959;28;20253;-63
2021/10/09 04:33:25;;;;;;;41.50;21.37;;;6.20;99.90;;;;;;2073986;28;20184;-64
2021/10/09 04:34:27;;;;;;;45.22;23.02;;;6.30;99.90;;;;;;2073916;28;20216;-64
2021/10/09 04:35:28;;;;;;;46.05;22.23;;;6.20;99.90;;;;;;2073940;28;20182;-64
2021/10/09 04:36:29;;;;;;;37.88;21.58;;;6.30;99.90;;;;;;2073930;28;20215;-65
2021/10/09 04:37:30;;;;;;;38.33;21.30;;;6.40;99.90;;;;;;2073871;28;20236;-65
2021/10/09 04:38:30;;;;;;;42.90;23.87;;;6.40;99.80;;;;;;2074071;28;20235;-64
2021/10/09 04:39:31;;;;;;;46.93;22.20;;;6.30;99.80;;;;;;2073954;28;20236;-65
2021/10/09 04:40:32;;;;;;;38.73;21.60;;;6.30;99.80;;;;;;2073928;28;20186;-64
2021/10/09 04:41:32;;;;;;;47.00;23.00;;;6.30;99.70;;;;;;2073620;28;20198;-64
2021/10/09 04:42:33;;;;;;;39.30;21.73;;;6.20;99.90;;;;;;2073820;28;20189;-64
2021/10/09 04:43:34;;;;;;;41.43;22.17;;;6.20;99.90;;;;;;2073910;28;20719;-64
2021/10/09 04:44:34;;;;;;;39.53;21.60;;;6.30;99.90;;;;;;2073764;28;20209;-64
2021/10/09 04:45:35;;;;;;;41.73;22.13;;;6.40;99.90;;;;;;2073933;28;20181;-64
2021/10/09 04:46:36;;;;;;;41.97;23.47;;;6.40;99.90;;;;;;2073832;28;20177;-63
2021/10/09 04:47:36;;;;;;;47.97;22.50;;;6.50;99.70;;;;;;2073934;28;20273;-63
2021/10/09 04:48:37;;;;;;;37.40;22.13;;;6.40;99.50;;;;;;2073861;28;20285;-65
2021/10/09 04:49:38;;;;;;;38.77;20.90;;;6.40;99.50;;;;;;2073284;28;20260;-64
2021/10/09 04:50:38;;;;;;;43.60;22.57;;;6.40;99.70;;;;;;2073182;28;20595;-63
2021/10/09 04:51:39;;;;;;;42.73;23.30;;;6.30;99.90;;;;;;2073705;28;20181;-64
2021/10/09 04:52:40;;;;;;;64.80;25.73;;;6.20;99.90;;;;;;2073802;28;20181;-64
2021/10/09 04:53:40;;;;;;;40.50;22.00;;;6.20;99.90;;;;;;2073740;28;20208;-63
2021/10/09 04:54:41;;;;;;;39.03;22.60;;;6.20;99.90;;;;;;2073776;28;20222;-64
2021/10/09 04:55:42;;;;;;;42.70;22.50;;;6.20;99.90;;;;;;2073845;28;20201;-64
2021/10/09 04:56:42;;;;;;;101.57;25.50;;;6.30;99.90;;;;;;2073853;28;20916;-64
2021/10/09 04:57:43;;;;;;;54.97;24.03;;;6.40;99.90;;;;;;2073927;28;20620;-65
2021/10/09 04:58:44;;;;;;;52.37;23.77;;;6.40;99.90;;;;;;2073057;28;20221;-65
2021/10/09 04:59:44;;;;;;;48.20;22.20;;;6.40;99.80;;;;;;2073263;28;20209;-64
2021/10/09 05:00:45;;;;;;;42.87;22.67;;;6.50;99.80;;;;;;2073739;28;20201;-66
2021/10/09 05:01:46;;;;;;;51.27;23.60;;;6.50;99.70;;;;;;2073599;28;20264;-64
2021/10/09 05:02:46;;;;;;;65.20;23.63;;;6.60;99.70;;;;;;2073997;28;20182;-64
2021/10/09 05:03:47;;;;;;;124.27;26.03;;;6.60;99.20;;;;;;2073818;28;20195;-66
2021/10/09 05:04:48;;;;;;;75.60;24.07;;;6.50;99.10;;;;;;2073654;28;20229;-64
2021/10/09 05:05:48;;;;;;;59.60;24.17;;;6.60;99.10;;;;;;2073871;28;20261;-65
2021/10/09 05:06:49;;;;;;;68.33;24.83;;;6.60;99.00;;;;;;2073785;28;20578;-67
2021/10/09 05:07:50;;;;;;;70.13;26.27;;;6.60;99.00;;;;;;2073743;28;20627;-66
2021/10/09 05:08:51;;;;;;;71.40;24.70;;;6.60;99.00;;;;;;2073061;28;20201;-65
2021/10/09 05:09:51;;;;;;;45.53;21.83;;;6.60;98.80;;;;;;2073139;28;20178;-66
2021/10/09 05:10:52;;;;;;;55.50;22.27;;;6.50;99.10;;;;;;2073725;28;20182;-65
2021/10/09 05:11:53;;;;;;;49.70;21.37;;;6.40;99.30;;;;;;2073578;28;20178;-66
2021/10/09 05:12:54;;;;;;;54.70;22.87;;;6.50;99.50;;;;;;2073803;28;20170;-67
2021/10/09 05:13:55;;;;;;;53.53;22.53;;;6.50;99.50;;;;;;2073116;28;20178;-64
2021/10/09 05:14:55;;;;;;;46.03;21.70;;;6.50;99.30;;;;;;2073025;28;20987;-66
2021/10/09 05:15:56;;;;;;;48.80;22.33;;;6.40;99.40;;;;;;2073732;28;20213;-65
2021/10/09 05:16:57;;;;;;;65.80;25.07;;;6.30;99.70;;;;;;2073710;28;20256;-65
2021/10/09 05:17:58;;;;;;;37.97;21.80;;;6.30;99.80;;;;;;2073867;28;20716;-64
2021/10/09 05:18:58;;;;;;;38.27;20.90;;;6.30;99.90;;;;;;2073803;28;20248;-66
2021/10/09 05:20:00;;;;;;;56.07;23.00;;;6.30;99.90;;;;;;2073563;28;20178;-65
2021/10/09 05:21:01;;;;;;;44.78;21.40;;;6.30;99.90;;;;;;2073521;28;20554;-65
2021/10/09 05:22:01;;;;;;;50.47;22.50;;;6.30;99.80;;;;;;2073599;28;20178;-64
2021/10/09 05:23:02;;;;;;;70.60;23.47;;;6.40;99.70;;;;;;2073798;28;20205;-66
2021/10/09 05:24:03;;;;;;;54.80;22.90;;;6.40;99.50;;;;;;2073653;28;20181;-65
2021/10/09 05:25:05;;;;;;;93.05;25.08;;;6.50;99.40;;;;;;2073470;28;20442;-65
2021/10/09 05:26:06;;;;;;;72.60;22.73;;;6.50;99.30;;;;;;2073629;28;20178;-66
2021/10/09 05:27:07;;;;;;;50.27;22.23;;;6.40;99.20;;;;;;2073554;28;20704;-64